Etusivu
METAR-TAF:

METAR-TAF

Lentoasemat :

Ghat, Libya

Leveyspiiri: 25-08N, Pituuspiiri: 010-09E, korkeus merenpinnasta: 699 m

METAR: puuttuu

Aika: 14:32 (12:32 UTC)

Sääennuste

Tämä raportti tehtiin 25 tuntia ja 32 minuuttia sitten, kello 11.00 UTC
Ennuste voimassa 18. päivästä klo 12 UTC - 19. päivään klo 12 UTC
Tuuli 10 kn kaakosta
Näkyvyys: 8000 m

TAF: HLGT 181100Z 1812/1912 VRB02KT 8000 NSC BECMG1910/1912 14010KT

Säähavainnot ja -ennusteet yli 4000 lentoasemalta (METAR- ja TAF-raportit).

Käytössä olevat sääasemat on merkitty karttaan keltaisilla ja punaisilla pisteillä.

Aseta hiiri pisteen päälle nähdäksesi sääaseman nimen.

Klikkaa sitten nähdäksesi säähavainnot ja -ennusteet.

Kartan vaihtaminen: klikkaa mustalla rastilla varustettuja vihreitä pisteitä, niin voit zoomata sisään; viivalla varustettua vihreää pistettä, niin voit zoomata ulos tai vihreitä nuolia, niin pääset viereisille kartoille.


METAR-TAF: